Time;durP1;ratioP1;P1;durP2;ratioP2;P2;SDS_P1;SDS_P2;PMS_P1;PMS_P2;Temp;Humidity;BMP_temperature;BMP_pressure;BME280_temperature;BME280_humidity;BME280_pressure;Samples;Min_cycle;Max_cycle;Signal;HPM_P1;HPM_P2
2021/12/31 00:00:27;;;;;;;1.83;0.87;;;15.40;99.90;;;;;;4996323;28;20205;-63
2021/12/31 00:02:53;;;;;;;1.43;1.10;;;15.30;99.90;;;;;;4995173;28;20438;-63
2021/12/31 00:05:19;;;;;;;1.03;0.93;;;15.40;99.90;;;;;;4996284;28;20906;-64
2021/12/31 00:07:47;;;;;;;1.43;1.20;;;15.50;99.90;;;;;;4996616;28;20203;-64
2021/12/31 00:10:13;;;;;;;1.27;1.17;;;15.40;99.90;;;;;;4996422;28;20175;-64
2021/12/31 00:12:43;;;;;;;1.43;1.10;;;15.40;99.90;;;;;;4996568;28;20424;-64
2021/12/31 00:15:10;;;;;;;1.37;0.97;;;15.40;99.90;;;;;;4996487;28;20479;-64
2021/12/31 00:17:36;;;;;;;1.37;1.13;;;15.40;99.90;;;;;;4996147;28;20399;-64
2021/12/31 00:20:08;;;;;;;3.20;1.07;;;15.50;99.90;;;;;;4996434;28;20921;-63
2021/12/31 00:23:19;;;;;;;1.33;1.10;;;15.50;99.90;;;;;;4996498;28;20201;-63
2021/12/31 00:25:23;;;;;;;2.13;1.20;;;15.50;99.90;;;;;;4990445;28;20414;-64
2021/12/31 00:27:49;;;;;;;1.10;1.00;;;15.30;99.90;;;;;;4996145;28;20823;-64
2021/12/31 00:30:15;;;;;;;1.63;0.87;;;15.20;99.90;;;;;;4996157;28;20415;-64
2021/12/31 00:32:41;;;;;;;3.70;1.20;;;15.20;99.90;;;;;;4996055;28;20883;-62
2021/12/31 00:35:07;;;;;;;3.37;1.00;;;15.30;99.90;;;;;;4996094;28;20449;-64
2021/12/31 00:37:35;;;;;;;1.33;0.87;;;15.30;99.90;;;;;;4996130;28;20211;-64
2021/12/31 00:40:03;;;;;;;1.40;0.90;;;15.20;99.90;;;;;;4996078;28;20429;-64
2021/12/31 00:42:29;;;;;;;1.50;1.10;;;14.90;99.90;;;;;;4995764;28;20437;-64
2021/12/31 00:44:55;;;;;;;1.77;1.03;;;15.00;99.90;;;;;;4995716;28;20406;-64
2021/12/31 00:47:21;;;;;;;1.40;1.30;;;15.00;99.90;;;;;;4995620;28;20214;-64
2021/12/31 00:49:46;;;;;;;1.30;1.10;;;15.10;99.90;;;;;;4995936;28;20653;-64
2021/12/31 00:52:13;;;;;;;1.70;1.10;;;15.00;99.90;;;;;;4995924;28;20411;-64
2021/12/31 00:54:39;;;;;;;1.57;1.13;;;14.90;99.90;;;;;;4996016;28;20636;-64
2021/12/31 00:57:06;;;;;;;1.87;1.40;;;15.00;99.90;;;;;;4996006;28;20785;-64
2021/12/31 00:59:32;;;;;;;2.10;1.23;;;15.00;99.90;;;;;;4995806;28;20410;-64
2021/12/31 01:01:59;;;;;;;2.10;1.10;;;14.80;99.90;;;;;;4995978;28;20438;-64
2021/12/31 01:04:24;;;;;;;1.80;1.20;;;14.80;99.90;;;;;;4995727;28;20792;-64
2021/12/31 01:06:50;;;;;;;2.03;1.20;;;15.00;99.90;;;;;;4995442;28;20522;-64
2021/12/31 01:09:16;;;;;;;1.30;1.00;;;15.00;99.90;;;;;;4995628;28;20164;-64
2021/12/31 01:11:46;;;;;;;1.70;1.50;;;14.90;99.90;;;;;;4995868;28;20174;-64
2021/12/31 01:14:25;;;;;;;1.37;1.27;;;14.90;99.90;;;;;;4995582;28;20195;-64
2021/12/31 01:16:57;;;;;;;4.20;1.50;;;14.90;99.90;;;;;;4995726;28;20781;-64
2021/12/31 01:21:49;;;;;;;1.87;1.53;;;14.60;99.90;;;;;;4996085;28;20505;-63
2021/12/31 01:24:14;;;;;;;1.90;1.20;;;14.60;99.90;;;;;;4996702;28;20467;-63
2021/12/31 01:26:40;;;;;;;2.20;1.37;;;14.50;99.90;;;;;;4995666;28;20189;-63
2021/12/31 01:29:05;;;;;;;1.73;1.20;;;14.50;99.90;;;;;;4995207;28;20176;-62
2021/12/31 01:31:33;;;;;;;1.40;1.07;;;14.60;99.90;;;;;;4994966;28;20176;-63
2021/12/31 01:33:59;;;;;;;2.40;1.10;;;14.50;99.90;;;;;;4994982;28;20286;-63
2021/12/31 01:36:24;;;;;;;1.80;1.27;;;14.40;99.90;;;;;;4994832;28;20875;-63
2021/12/31 01:38:50;;;;;;;2.73;1.60;;;14.40;99.90;;;;;;4994839;28;20411;-63
2021/12/31 01:41:16;;;;;;;2.97;1.40;;;14.30;99.90;;;;;;4994851;28;20168;-63
2021/12/31 01:43:41;;;;;;;2.40;1.43;;;14.30;99.90;;;;;;4994696;28;20191;-63
2021/12/31 01:46:13;;;;;;;2.03;1.40;;;14.00;99.90;;;;;;4994905;28;20167;-63
2021/12/31 01:49:01;;;;;;;3.03;1.80;;;14.10;99.90;;;;;;4995473;28;20707;-63
2021/12/31 01:51:28;;;;;;;3.03;1.60;;;14.00;99.90;;;;;;4994975;28;20481;-64
2021/12/31 01:53:54;;;;;;;1.70;1.53;;;14.00;99.90;;;;;;4995034;28;20508;-63
2021/12/31 01:56:20;;;;;;;2.63;2.00;;;13.90;99.90;;;;;;4994542;28;20485;-63
2021/12/31 01:58:53;;;;;;;1.80;1.17;;;13.90;99.90;;;;;;4994657;28;20414;-63
2021/12/31 02:01:20;;;;;;;2.03;1.40;;;13.90;99.90;;;;;;4993207;28;20432;-63
2021/12/31 02:03:46;;;;;;;2.23;1.43;;;13.80;99.90;;;;;;4994540;28;20431;-65
2021/12/31 02:06:11;;;;;;;4.00;1.57;;;13.70;99.90;;;;;;4994581;28;20431;-63
2021/12/31 02:08:37;;;;;;;1.80;1.30;;;13.70;99.90;;;;;;4994095;28;20556;-63
2021/12/31 02:11:03;;;;;;;2.50;1.50;;;13.50;99.90;;;;;;4994920;28;20180;-63
2021/12/31 02:13:29;;;;;;;2.20;1.57;;;13.50;99.90;;;;;;4994986;28;20198;-63
2021/12/31 02:15:55;;;;;;;2.93;1.80;;;13.40;99.90;;;;;;4994188;28;20175;-64
2021/12/31 02:18:20;;;;;;;1.10;1.00;;;13.30;99.90;;;;;;4994101;28;20414;-63
2021/12/31 02:20:48;;;;;;;2.80;1.30;;;13.20;99.90;;;;;;4994075;28;20181;-64
2021/12/31 02:23:24;;;;;;;1.30;1.03;;;13.10;99.90;;;;;;4993952;28;20239;-63
2021/12/31 02:25:51;;;;;;;3.60;1.53;;;13.10;99.90;;;;;;4994014;28;20411;-64
2021/12/31 02:28:18;;;;;;;1.63;1.40;;;12.90;99.90;;;;;;4994607;28;20443;-63
2021/12/31 02:30:44;;;;;;;2.37;1.67;;;12.90;99.90;;;;;;4995297;28;20500;-63
2021/12/31 02:33:10;;;;;;;1.90;1.50;;;12.90;99.90;;;;;;4994301;28;20996;-63
2021/12/31 02:35:37;;;;;;;3.97;1.53;;;12.80;99.90;;;;;;4993453;28;20448;-64
2021/12/31 02:38:04;;;;;;;2.50;1.67;;;12.80;99.90;;;;;;4994072;28;20401;-64
2021/12/31 02:40:32;;;;;;;2.27;1.73;;;12.70;99.90;;;;;;4994091;28;20423;-64
2021/12/31 02:42:58;;;;;;;2.33;1.50;;;12.70;99.90;;;;;;4992495;28;20432;-64
2021/12/31 02:45:35;;;;;;;4.23;2.10;;;12.60;99.90;;;;;;4994052;28;20484;-64
2021/12/31 02:48:03;;;;;;;1.60;1.50;;;12.60;99.90;;;;;;4994141;28;20796;-64
2021/12/31 02:50:34;;;;;;;4.60;1.80;;;12.60;99.90;;;;;;4994000;28;20415;-64
2021/12/31 02:53:06;;;;;;;3.90;1.97;;;12.50;99.90;;;;;;4993587;28;20412;-64
2021/12/31 02:55:33;;;;;;;1.90;1.70;;;12.40;99.90;;;;;;4994011;28;20389;-64
2021/12/31 02:57:59;;;;;;;1.93;1.60;;;12.40;99.90;;;;;;4993555;28;20913;-64
2021/12/31 03:00:25;;;;;;;1.70;1.43;;;12.30;99.90;;;;;;4994153;28;20498;-64
2021/12/31 03:02:52;;;;;;;2.43;1.50;;;12.30;99.90;;;;;;4993825;28;20494;-64
2021/12/31 03:05:19;;;;;;;1.53;1.43;;;12.30;99.90;;;;;;4993689;28;20410;-64
2021/12/31 03:07:47;;;;;;;3.13;2.00;;;12.30;99.90;;;;;;4993460;28;20858;-64
2021/12/31 03:10:14;;;;;;;1.50;1.37;;;12.20;99.90;;;;;;4994126;28;20404;-64
2021/12/31 03:12:41;;;;;;;5.00;1.90;;;12.20;99.90;;;;;;4993483;28;20424;-64
2021/12/31 03:15:08;;;;;;;1.53;1.13;;;12.20;99.90;;;;;;4993790;28;20498;-64
2021/12/31 03:17:35;;;;;;;1.90;1.50;;;12.20;99.90;;;;;;4993420;28;20406;-64
2021/12/31 03:20:13;;;;;;;3.87;1.97;;;12.20;99.90;;;;;;4993482;28;20404;-64
2021/12/31 03:22:40;;;;;;;2.30;1.70;;;12.20;99.90;;;;;;4992140;28;20456;-64
2021/12/31 03:25:07;;;;;;;1.97;1.80;;;12.10;99.90;;;;;;4993381;28;20851;-64
2021/12/31 03:27:33;;;;;;;2.27;1.40;;;12.00;99.90;;;;;;4993637;28;20461;-64
2021/12/31 03:29:58;;;;;;;2.60;1.67;;;12.00;99.90;;;;;;4992019;28;20514;-61
2021/12/31 03:32:24;;;;;;;2.60;1.40;;;12.00;99.90;;;;;;4993281;28;20227;-63
2021/12/31 03:34:50;;;;;;;2.17;1.50;;;11.90;99.90;;;;;;4992220;28;20172;-63
2021/12/31 03:37:16;;;;;;;2.03;1.43;;;11.90;99.90;;;;;;4993642;28;20169;-63
2021/12/31 03:39:42;;;;;;;1.70;1.40;;;11.80;99.90;;;;;;4993367;28;20412;-63
2021/12/31 03:42:07;;;;;;;2.77;1.77;;;11.70;99.90;;;;;;4993460;28;20217;-63
2021/12/31 03:44:33;;;;;;;2.00;1.40;;;11.60;99.90;;;;;;4993413;28;20172;-64
2021/12/31 03:46:58;;;;;;;3.70;1.67;;;11.50;99.90;;;;;;4995696;28;20189;-64
2021/12/31 03:49:24;;;;;;;2.43;1.40;;;11.40;99.90;;;;;;4996753;28;20185;-63
2021/12/31 03:51:49;;;;;;;2.27;1.43;;;11.40;99.90;;;;;;4997318;28;20565;-63
2021/12/31 03:54:15;;;;;;;1.50;1.33;;;11.40;99.90;;;;;;4996513;28;20190;-64
2021/12/31 03:56:41;;;;;;;2.77;2.43;;;11.30;99.90;;;;;;4996595;28;20526;-64
2021/12/31 03:59:06;;;;;;;1.93;1.50;;;11.20;99.90;;;;;;4996486;28;20534;-64
2021/12/31 04:01:32;;;;;;;1.70;1.60;;;11.20;99.90;;;;;;4996479;28;20168;-64
2021/12/31 04:03:58;;;;;;;2.10;1.13;;;11.20;99.90;;;;;;4996320;28;20193;-63
2021/12/31 04:06:23;;;;;;;2.00;1.20;;;11.20;99.90;;;;;;4996327;28;20169;-64
2021/12/31 04:08:50;;;;;;;4.40;1.50;;;11.10;99.90;;;;;;4996259;28;20198;-63
2021/12/31 04:11:16;;;;;;;1.77;1.50;;;11.00;99.90;;;;;;4994992;28;20169;-63
2021/12/31 04:13:42;;;;;;;1.77;1.33;;;11.10;99.90;;;;;;4996208;28;20430;-63
2021/12/31 04:16:08;;;;;;;2.90;1.90;;;11.10;99.90;;;;;;4996482;28;20168;-63
2021/12/31 04:18:33;;;;;;;3.73;2.17;;;11.10;99.90;;;;;;4996173;28;20256;-63
2021/12/31 04:21:01;;;;;;;1.90;1.70;;;11.10;99.90;;;;;;4996383;28;20198;-63
2021/12/31 04:23:33;;;;;;;1.70;1.60;;;11.10;99.90;;;;;;4996051;28;20182;-63
2021/12/31 04:25:59;;;;;;;1.70;1.47;;;11.10;99.90;;;;;;4996340;28;20419;-64
2021/12/31 04:28:26;;;;;;;1.77;1.67;;;11.20;99.90;;;;;;4996463;28;20549;-63
2021/12/31 04:30:51;;;;;;;1.40;1.20;;;11.20;99.90;;;;;;4996475;28;20405;-64
2021/12/31 04:33:17;;;;;;;2.90;1.60;;;11.20;99.90;;;;;;5020162;23;20497;-61
2021/12/31 04:35:43;;;;;;;1.87;1.53;;;11.20;99.90;;;;;;4996122;28;20178;-61
2021/12/31 04:38:08;;;;;;;1.87;1.43;;;11.10;99.90;;;;;;4995817;28;20177;-63
2021/12/31 04:40:34;;;;;;;1.43;1.33;;;11.10;99.90;;;;;;4995655;28;20176;-63
2021/12/31 04:43:00;;;;;;;2.70;1.47;;;11.10;99.90;;;;;;4995496;28;20197;-63
2021/12/31 04:45:25;;;;;;;3.43;1.77;;;11.10;99.90;;;;;;4995491;28;20543;-63
2021/12/31 04:47:51;;;;;;;2.97;1.60;;;11.00;99.90;;;;;;4995701;28;20312;-61
2021/12/31 04:50:17;;;;;;;4.87;1.97;;;11.00;99.90;;;;;;4995780;28;20208;-62
2021/12/31 04:52:43;;;;;;;1.90;1.50;;;10.90;99.90;;;;;;4995284;28;20440;-62
2021/12/31 04:55:10;;;;;;;2.70;1.63;;;10.90;99.90;;;;;;4995699;28;20403;-62
2021/12/31 04:57:36;;;;;;;1.80;1.23;;;10.90;99.90;;;;;;4994875;28;20526;-62
2021/12/31 05:00:05;;;;;;;3.27;1.80;;;11.00;99.90;;;;;;4995909;28;20508;-62
2021/12/31 05:02:30;;;;;;;2.67;1.87;;;10.90;99.90;;;;;;4995368;28;20491;-63
2021/12/31 05:04:56;;;;;;;2.30;1.60;;;10.80;99.90;;;;;;4995377;28;20944;-63
2021/12/31 05:07:22;;;;;;;2.87;1.43;;;10.90;99.90;;;;;;4995518;28;20196;-63
2021/12/31 05:09:48;;;;;;;4.70;1.57;;;10.80;99.90;;;;;;4996561;28;20535;-63
2021/12/31 05:12:19;;;;;;;6.40;2.20;;;10.90;99.90;;;;;;4995300;28;20404;-62
2021/12/31 05:14:45;;;;;;;1.50;1.40;;;10.80;99.90;;;;;;4995367;28;20185;-62
2021/12/31 05:17:11;;;;;;;1.60;1.50;;;10.70;99.90;;;;;;4995631;28;20400;-63
2021/12/31 05:19:37;;;;;;;2.17;1.97;;;10.70;99.90;;;;;;4995236;28;20581;-62
2021/12/31 05:22:03;;;;;;;2.03;1.83;;;10.70;99.90;;;;;;4994894;28;20215;-62
2021/12/31 05:24:28;;;;;;;2.00;1.80;;;10.70;99.90;;;;;;4994816;28;20210;-62
2021/12/31 05:26:54;;;;;;;1.90;1.50;;;10.50;99.90;;;;;;4995274;28;20551;-62
2021/12/31 05:29:19;;;;;;;1.70;1.60;;;10.60;99.90;;;;;;4994907;28;20223;-62
2021/12/31 05:31:45;;;;;;;2.23;1.63;;;10.50;99.90;;;;;;4994707;28;20200;-61
2021/12/31 05:34:10;;;;;;;2.00;1.80;;;10.60;99.90;;;;;;4994420;28;20581;-62
2021/12/31 05:36:36;;;;;;;3.10;2.00;;;10.70;99.90;;;;;;4994866;28;20200;-62
2021/12/31 05:39:02;;;;;;;3.70;1.80;;;10.60;99.90;;;;;;4994475;28;20174;-63
2021/12/31 05:41:29;;;;;;;1.67;1.40;;;10.70;99.90;;;;;;4994460;28;20168;-63
2021/12/31 05:43:54;;;;;;;1.50;1.40;;;10.70;99.90;;;;;;4994515;28;20417;-62
2021/12/31 05:46:20;;;;;;;4.20;1.83;;;10.70;99.90;;;;;;4994769;28;20422;-63
2021/12/31 05:48:45;;;;;;;3.47;1.70;;;10.70;99.90;;;;;;4994597;28;20203;-62
2021/12/31 05:51:11;;;;;;;2.40;1.80;;;10.70;99.90;;;;;;4994544;28;20201;-62
2021/12/31 05:53:36;;;;;;;3.53;1.70;;;10.70;99.90;;;;;;4994258;28;20201;-62
2021/12/31 05:56:02;;;;;;;1.97;1.60;;;10.60;99.90;;;;;;4994280;28;20179;-63
2021/12/31 05:58:28;;;;;;;2.50;1.60;;;10.60;99.90;;;;;;4994216;28;20645;-62
2021/12/31 06:00:53;;;;;;;3.20;1.90;;;10.60;99.90;;;;;;4994158;28;20513;-62
2021/12/31 06:03:19;;;;;;;2.90;1.50;;;10.70;99.90;;;;;;4994046;28;20192;-62
2021/12/31 06:05:45;;;;;;;2.13;1.57;;;10.70;99.90;;;;;;4994042;28;20186;-62
2021/12/31 06:08:10;;;;;;;2.47;1.93;;;10.80;99.90;;;;;;4994240;28;20193;-62
2021/12/31 06:10:40;;;;;;;4.87;2.40;;;10.90;99.90;;;;;;4993967;28;20650;-63
2021/12/31 06:13:05;;;;;;;1.67;1.53;;;10.90;99.90;;;;;;4993922;28;20193;-63
2021/12/31 06:15:32;;;;;;;2.23;1.63;;;11.00;99.90;;;;;;4994094;28;20407;-63
2021/12/31 06:17:58;;;;;;;3.90;1.87;;;11.10;99.90;;;;;;4993988;28;20165;-62
2021/12/31 06:20:25;;;;;;;1.90;1.53;;;11.10;99.90;;;;;;4993986;28;20416;-62
2021/12/31 06:22:50;;;;;;;3.10;1.50;;;11.10;99.90;;;;;;4993842;28;20280;-62
2021/12/31 06:25:16;;;;;;;3.07;1.33;;;11.00;99.90;;;;;;4993854;28;20447;-63
2021/12/31 06:27:42;;;;;;;2.53;1.80;;;11.00;99.90;;;;;;4993768;28;20202;-62
2021/12/31 06:30:09;;;;;;;2.10;1.73;;;11.00;99.90;;;;;;4993781;28;20674;-62
2021/12/31 06:32:34;;;;;;;2.53;1.70;;;10.90;99.90;;;;;;4993723;28;20425;-63
2021/12/31 06:35:00;;;;;;;2.70;1.57;;;10.90;99.90;;;;;;4994044;28;20444;-63
2021/12/31 06:37:26;;;;;;;3.17;1.67;;;10.90;99.90;;;;;;4993806;28;20598;-62
2021/12/31 06:39:53;;;;;;;2.00;1.83;;;10.80;99.90;;;;;;4993956;28;20174;-62
2021/12/31 06:42:18;;;;;;;2.53;1.10;;;10.70;99.90;;;;;;4994323;28;20170;-62
2021/12/31 06:44:44;;;;;;;1.67;1.50;;;10.70;99.90;;;;;;4993974;28;20474;-62
2021/12/31 06:47:09;;;;;;;1.37;1.27;;;10.80;99.90;;;;;;4992298;28;20669;-63
2021/12/31 06:49:35;;;;;;;1.83;1.73;;;10.80;99.90;;;;;;4993552;28;20178;-63
2021/12/31 06:52:01;;;;;;;2.93;1.43;;;10.90;99.90;;;;;;4994126;28;20605;-62
2021/12/31 06:54:26;;;;;;;1.73;1.63;;;10.80;99.90;;;;;;4993440;28;20188;-61
2021/12/31 06:56:52;;;;;;;1.60;1.40;;;10.90;99.90;;;;;;4993848;28;20174;-62
2021/12/31 06:59:17;;;;;;;1.50;1.40;;;11.00;99.90;;;;;;4993663;28;20176;-62
2021/12/31 07:01:43;;;;;;;1.57;1.23;;;11.10;99.90;;;;;;4993512;28;20638;-62
2021/12/31 07:04:10;;;;;;;2.17;1.90;;;11.10;99.90;;;;;;4993636;28;20195;-63
2021/12/31 07:06:35;;;;;;;1.80;1.70;;;11.10;99.90;;;;;;4993497;28;20175;-63
2021/12/31 07:09:01;;;;;;;2.57;2.03;;;11.10;99.90;;;;;;4993658;28;20416;-62
2021/12/31 07:11:27;;;;;;;2.17;1.93;;;11.10;99.90;;;;;;4993492;28;20184;-62
2021/12/31 07:13:53;;;;;;;2.53;2.30;;;11.10;99.90;;;;;;4993685;28;20447;-63
2021/12/31 07:16:18;;;;;;;2.50;2.30;;;11.10;99.90;;;;;;4993649;28;20165;-62
2021/12/31 07:18:45;;;;;;;2.20;2.00;;;11.20;99.90;;;;;;4993285;28;20170;-61
2021/12/31 07:21:10;;;;;;;1.60;1.50;;;11.20;99.90;;;;;;4994913;28;20557;-62
2021/12/31 07:23:36;;;;;;;2.73;2.30;;;11.30;99.90;;;;;;4997199;28;20439;-62
2021/12/31 07:26:02;;;;;;;3.47;2.17;;;11.30;99.90;;;;;;4997012;28;20181;-62
2021/12/31 07:28:28;;;;;;;4.57;2.20;;;11.40;99.90;;;;;;4997183;28;20238;-62
2021/12/31 07:30:55;;;;;;;2.63;2.43;;;11.40;99.90;;;;;;4997255;28;20186;-62
2021/12/31 07:33:24;;;;;;;3.20;2.83;;;11.40;99.90;;;;;;4996835;28;20447;-62
2021/12/31 07:35:51;;;;;;;3.17;2.87;;;11.30;99.90;;;;;;4997407;28;20438;-62
2021/12/31 07:38:20;;;;;;;3.07;2.47;;;11.30;99.90;;;;;;4996956;28;20410;-62
2021/12/31 07:40:47;;;;;;;3.07;2.77;;;11.30;99.90;;;;;;4996709;28;20417;-62
2021/12/31 07:43:14;;;;;;;3.10;2.43;;;11.20;99.90;;;;;;4997152;28;20455;-62
2021/12/31 07:45:40;;;;;;;3.90;3.13;;;11.30;99.90;;;;;;4996781;28;20411;-62
2021/12/31 07:48:06;;;;;;;3.90;3.10;;;11.30;99.90;;;;;;4996609;28;20456;-62
2021/12/31 07:50:32;;;;;;;2.80;2.50;;;11.30;99.90;;;;;;4996442;28;20412;-62
2021/12/31 07:52:57;;;;;;;3.27;2.97;;;11.30;99.90;;;;;;4996804;28;20422;-62
2021/12/31 07:55:23;;;;;;;3.10;2.77;;;11.40;99.90;;;;;;4996494;28;20175;-62
2021/12/31 07:57:48;;;;;;;3.60;2.70;;;11.50;99.90;;;;;;4996399;28;20201;-63
2021/12/31 08:00:15;;;;;;;4.10;3.70;;;11.60;99.90;;;;;;4996348;28;20168;-62
2021/12/31 08:02:40;;;;;;;4.60;3.77;;;11.50;99.90;;;;;;4996092;28;20221;-62
2021/12/31 08:05:06;;;;;;;4.00;3.33;;;11.50;99.90;;;;;;4996904;28;20886;-63
2021/12/31 08:07:32;;;;;;;3.83;3.43;;;11.40;99.90;;;;;;4996142;28;20211;-62
2021/12/31 08:09:58;;;;;;;3.40;2.97;;;11.50;99.90;;;;;;4996780;28;20403;-62
2021/12/31 08:12:23;;;;;;;3.87;3.07;;;11.60;99.90;;;;;;4996794;28;20203;-62
2021/12/31 08:14:49;;;;;;;3.87;3.00;;;11.40;99.90;;;;;;4996132;28;20592;-62
2021/12/31 08:17:15;;;;;;;3.53;3.23;;;11.60;99.90;;;;;;4996379;28;20222;-62
2021/12/31 08:19:41;;;;;;;6.43;4.77;;;11.50;99.90;;;;;;4996132;28;20467;-62
2021/12/31 08:22:07;;;;;;;7.30;5.13;;;11.60;99.90;;;;;;4996005;28;20536;-62
2021/12/31 08:24:33;;;;;;;5.00;3.57;;;11.60;99.90;;;;;;4995947;28;20458;-60
2021/12/31 08:27:00;;;;;;;4.90;4.00;;;11.70;99.90;;;;;;4996312;28;20458;-62
2021/12/31 08:29:25;;;;;;;5.93;4.93;;;11.80;99.90;;;;;;4995875;28;20500;-62
2021/12/31 08:31:51;;;;;;;4.50;4.10;;;11.60;99.90;;;;;;4995196;28;20500;-62
2021/12/31 08:34:16;;;;;;;6.43;4.57;;;11.70;99.90;;;;;;4995340;28;20591;-62
2021/12/31 08:36:42;;;;;;;5.50;4.60;;;11.70;99.90;;;;;;4995769;28;20168;-62
2021/12/31 08:39:09;;;;;;;6.90;4.93;;;11.70;99.90;;;;;;4995715;28;20219;-62
2021/12/31 08:41:36;;;;;;;5.13;4.10;;;11.60;99.90;;;;;;4995932;28;20183;-59
2021/12/31 08:44:01;;;;;;;5.00;4.30;;;11.70;99.90;;;;;;4995992;28;20423;-62
2021/12/31 08:46:27;;;;;;;5.10;4.30;;;11.60;99.90;;;;;;4995762;28;20913;-62
2021/12/31 08:48:52;;;;;;;5.00;4.20;;;11.80;99.90;;;;;;4995522;28;20199;-62
2021/12/31 08:51:18;;;;;;;6.50;4.80;;;11.80;99.90;;;;;;4995927;28;20181;-61
2021/12/31 08:53:44;;;;;;;7.67;5.13;;;11.80;99.90;;;;;;4995692;28;20177;-62
2021/12/31 08:56:10;;;;;;;4.77;3.80;;;11.80;99.90;;;;;;4995485;28;20431;-61
2021/12/31 08:58:36;;;;;;;4.87;4.37;;;11.90;99.90;;;;;;4995325;28;20183;-62
2021/12/31 09:01:02;;;;;;;5.97;4.20;;;11.90;99.90;;;;;;4995220;28;20256;-62
2021/12/31 09:03:27;;;;;;;5.57;4.37;;;12.10;99.90;;;;;;4995187;28;20519;-62
2021/12/31 09:05:53;;;;;;;5.60;5.10;;;12.10;99.90;;;;;;4995235;28;20520;-62
2021/12/31 09:08:19;;;;;;;4.80;4.23;;;12.20;99.90;;;;;;4995125;28;20618;-62
2021/12/31 09:10:44;;;;;;;6.67;5.60;;;12.20;99.90;;;;;;4995094;28;20254;-62
2021/12/31 09:13:10;;;;;;;4.87;4.37;;;12.30;99.90;;;;;;4994944;28;20190;-61
2021/12/31 09:15:36;;;;;;;5.00;4.50;;;12.30;99.90;;;;;;4995381;28;20170;-61
2021/12/31 09:18:01;;;;;;;4.73;4.13;;;12.10;99.90;;;;;;4995275;28;20247;-62
2021/12/31 09:20:28;;;;;;;7.27;5.17;;;12.10;99.90;;;;;;4994821;28;20227;-62
2021/12/31 09:22:54;;;;;;;6.83;5.67;;;12.10;99.90;;;;;;4994862;28;20672;-62
2021/12/31 09:25:20;;;;;;;5.50;5.00;;;12.00;99.90;;;;;;4994828;28;20495;-62
2021/12/31 09:27:46;;;;;;;5.63;5.03;;;12.00;99.90;;;;;;4995023;28;20315;-62
2021/12/31 09:30:13;;;;;;;6.10;5.50;;;12.10;99.90;;;;;;4995334;28;20405;-62
2021/12/31 09:32:39;;;;;;;5.80;5.10;;;12.30;99.90;;;;;;4994584;28;20646;-62
2021/12/31 09:35:06;;;;;;;5.83;5.23;;;12.40;99.90;;;;;;4994853;28;20400;-61
2021/12/31 09:37:32;;;;;;;6.50;5.63;;;12.50;99.90;;;;;;4993270;28;21002;-62
2021/12/31 09:39:58;;;;;;;6.50;5.90;;;12.60;99.90;;;;;;4993313;28;20423;-61
2021/12/31 09:42:24;;;;;;;4.93;4.43;;;12.50;99.90;;;;;;4994906;28;20915;-62
2021/12/31 09:44:50;;;;;;;6.00;5.47;;;12.60;99.90;;;;;;4994088;28;20792;-62
2021/12/31 09:47:18;;;;;;;4.90;4.40;;;12.70;99.90;;;;;;4994449;28;20452;-61
2021/12/31 09:49:44;;;;;;;5.50;4.73;;;12.60;99.90;;;;;;4994373;28;20407;-62
2021/12/31 09:52:12;;;;;;;4.80;4.27;;;12.70;99.90;;;;;;4994411;28;20396;-61
2021/12/31 09:54:46;;;;;;;5.67;5.00;;;12.60;99.90;;;;;;4994193;28;20441;-61
2021/12/31 09:57:20;;;;;;;5.17;4.50;;;12.70;99.90;;;;;;4994297;28;20449;-61
2021/12/31 09:59:47;;;;;;;4.10;3.70;;;12.90;99.90;;;;;;4994358;28;20385;-62
2021/12/31 10:02:13;;;;;;;5.20;4.60;;;12.90;99.90;;;;;;4992959;28;20417;-61
2021/12/31 10:04:53;;;;;;;4.53;4.13;;;12.90;99.90;;;;;;4994183;28;20531;-62
2021/12/31 10:07:21;;;;;;;4.50;4.07;;;12.90;99.90;;;;;;4994100;28;20476;-62
2021/12/31 10:10:09;;;;;;;4.07;3.77;;;13.00;99.90;;;;;;4993974;28;20487;-61
2021/12/31 10:12:46;;;;;;;3.40;3.10;;;12.90;99.90;;;;;;4994192;28;20412;-61
2021/12/31 10:15:12;;;;;;;3.50;3.20;;;13.00;99.90;;;;;;4993980;28;20433;-61
2021/12/31 10:17:37;;;;;;;3.30;3.00;;;13.20;99.90;;;;;;4993900;28;20404;-61
2021/12/31 10:20:04;;;;;;;4.30;3.80;;;13.30;99.90;;;;;;4993939;28;20176;-61
2021/12/31 10:22:29;;;;;;;5.33;4.83;;;13.30;99.90;;;;;;4994036;28;20170;-63
2021/12/31 10:24:55;;;;;;;5.57;3.83;;;13.20;99.90;;;;;;4993658;28;20422;-62
2021/12/31 10:27:21;;;;;;;4.83;4.33;;;13.20;99.90;;;;;;4993669;28;20273;-62
2021/12/31 10:30:02;;;;;;;4.63;4.23;;;13.30;99.90;;;;;;4993728;28;20167;-62
2021/12/31 10:32:30;;;;;;;5.10;4.10;;;13.40;99.90;;;;;;4993769;28;20407;-62
2021/12/31 10:35:09;;;;;;;4.63;4.23;;;13.30;99.90;;;;;;5009044;23;20493;-63
2021/12/31 10:37:42;;;;;;;4.60;4.20;;;13.40;99.90;;;;;;4994576;28;20918;-63
2021/12/31 10:40:08;;;;;;;5.07;4.60;;;13.40;99.90;;;;;;4993717;28;20439;-63
2021/12/31 10:42:34;;;;;;;4.63;4.13;;;13.30;99.90;;;;;;4993565;28;20781;-63
2021/12/31 10:45:03;;;;;;;5.00;4.50;;;13.40;99.90;;;;;;4993438;28;20432;-63
2021/12/31 10:47:47;;;;;;;5.60;4.40;;;13.50;99.90;;;;;;4993486;28;20458;-63
2021/12/31 10:50:16;;;;;;;4.30;3.90;;;13.60;99.90;;;;;;4993666;28;20398;-63
2021/12/31 10:53:07;;;;;;;5.33;4.07;;;13.80;99.90;;;;;;4993895;28;20450;-63
2021/12/31 10:55:39;;;;;;;5.40;3.90;;;13.90;99.90;;;;;;4994527;28;20391;-63
2021/12/31 10:58:06;;;;;;;3.90;3.60;;;13.90;99.90;;;;;;4997803;28;20387;-63
2021/12/31 11:00:35;;;;;;;4.53;4.13;;;14.00;99.90;;;;;;4998098;28;20409;-63
2021/12/31 11:03:01;;;;;;;4.10;3.70;;;14.30;99.90;;;;;;4997907;28;20887;-64
2021/12/31 11:05:27;;;;;;;4.37;3.97;;;15.40;99.90;;;;;;4997435;28;20412;-64
2021/12/31 11:07:54;;;;;;;4.27;3.87;;;17.00;99.90;;;;;;4996108;28;20455;-64
2021/12/31 11:10:26;;;;;;;4.40;3.67;;;18.60;99.90;;;;;;4997634;28;20411;-63
2021/12/31 11:12:53;;;;;;;3.70;3.30;;;20.30;99.90;;;;;;4997452;28;20932;-64
2021/12/31 11:15:19;;;;;;;3.87;3.53;;;21.90;99.90;;;;;;4997196;28;20434;-64
2021/12/31 11:17:45;;;;;;;5.70;3.67;;;22.50;99.90;;;;;;4997341;28;20400;-64
2021/12/31 11:20:12;;;;;;;2.63;2.43;;;22.40;99.90;;;;;;4997141;28;20541;-64
2021/12/31 11:22:38;;;;;;;3.63;3.33;;;23.60;99.90;;;;;;4996955;28;20172;-64
2021/12/31 11:25:25;;;;;;;3.77;3.47;;;23.40;99.90;;;;;;4997267;28;20530;-64
2021/12/31 11:27:52;;;;;;;4.20;3.40;;;23.40;98.70;;;;;;4996919;28;20518;-63
2021/12/31 11:30:24;;;;;;;2.87;2.67;;;23.30;99.00;;;;;;4998109;28;20419;-64
2021/12/31 11:33:01;;;;;;;3.27;2.97;;;23.10;99.50;;;;;;4997019;28;20400;-64
2021/12/31 11:35:58;;;;;;;2.63;2.43;;;23.60;98.80;;;;;;4996822;28;20415;-64
2021/12/31 11:38:26;;;;;;;5.77;2.63;;;24.90;97.20;;;;;;4995623;28;20780;-64
2021/12/31 11:41:08;;;;;;;3.00;2.70;;;25.40;95.70;;;;;;4997339;28;20810;-64
2021/12/31 11:43:38;;;;;;;2.40;2.20;;;25.70;95.20;;;;;;4997005;28;20498;-62
2021/12/31 11:46:10;;;;;;;2.53;2.27;;;26.10;94.30;;;;;;4996714;28;20418;-62
2021/12/31 11:48:48;;;;;;;3.33;2.67;;;26.60;92.80;;;;;;4996811;28;20463;-63
2021/12/31 11:51:22;;;;;;;2.73;2.30;;;26.10;93.10;;;;;;4996809;28;20802;-63
2021/12/31 11:53:59;;;;;;;1.80;1.70;;;25.20;93.90;;;;;;4996851;28;20424;-63
2021/12/31 11:56:37;;;;;;;3.30;2.23;;;25.00;94.50;;;;;;4996748;28;20426;-63
2021/12/31 11:59:10;;;;;;;3.00;2.70;;;25.50;93.80;;;;;;4996726;28;20458;-63
2021/12/31 12:01:36;;;;;;;2.77;2.57;;;24.70;93.70;;;;;;4996893;28;20768;-63
2021/12/31 12:04:39;;;;;;;2.57;2.37;;;25.00;94.30;;;;;;4996617;28;20435;-63
2021/12/31 12:07:12;;;;;;;2.30;2.10;;;24.50;94.00;;;;;;4996910;28;20680;-63
2021/12/31 12:09:37;;;;;;;2.40;2.20;;;24.00;95.20;;;;;;4996687;28;20399;-64
2021/12/31 12:12:22;;;;;;;2.50;2.30;;;24.00;95.00;;;;;;4996584;28;20856;-63
2021/12/31 12:14:53;;;;;;;2.30;2.10;;;24.60;94.90;;;;;;4996452;28;20194;-64
2021/12/31 12:17:30;;;;;;;1.80;1.70;;;24.20;94.80;;;;;;4996459;28;20385;-64
2021/12/31 12:20:02;;;;;;;3.20;2.30;;;24.30;95.10;;;;;;4996227;28;20461;-63
2021/12/31 12:22:34;;;;;;;2.17;1.97;;;24.30;95.00;;;;;;4995927;28;20407;-63
2021/12/31 12:25:04;;;;;;;2.13;1.93;;;24.60;95.00;;;;;;4996225;28;20486;-64
2021/12/31 12:27:30;;;;;;;2.20;1.90;;;24.90;94.00;;;;;;4996431;28;20443;-63
2021/12/31 12:29:59;;;;;;;2.33;2.23;;;24.30;94.50;;;;;;4996053;28;20904;-63
2021/12/31 12:35:21;;;;;;;4.40;1.83;;;24.30;95.00;;;;;;4995762;28;20435;-64
2021/12/31 12:38:05;;;;;;;2.87;2.00;;;23.70;95.50;;;;;;4995894;28;20408;-63
2021/12/31 12:40:43;;;;;;;2.37;2.17;;;23.20;96.10;;;;;;4995851;28;20535;-63
2021/12/31 12:43:26;;;;;;;2.37;2.17;;;21.60;98.10;;;;;;4995949;28;20458;-63
2021/12/31 12:46:05;;;;;;;2.00;1.63;;;20.70;99.80;;;;;;4995725;28;20412;-63
2021/12/31 12:48:33;;;;;;;1.80;1.70;;;20.20;99.90;;;;;;4995674;28;20886;-63
2021/12/31 12:51:00;;;;;;;1.90;1.80;;;20.00;99.90;;;;;;4995785;28;20408;-63
2021/12/31 12:53:27;;;;;;;4.83;1.97;;;19.80;99.90;;;;;;4995383;28;20474;-64
2021/12/31 12:56:14;;;;;;;2.33;2.13;;;19.50;99.90;;;;;;4995444;28;20490;-65